sensor_id;sensor_type;location;lat;lon;timestamp;P1;durP1;ratioP1;P2;durP2;ratioP2
22034;SDS011;11181;51.002;4.356;2023-08-20T00:02:01;6.68;;;2.45;;
22034;SDS011;11181;51.002;4.356;2023-08-20T00:04:30;10.95;;;2.60;;
22034;SDS011;11181;51.002;4.356;2023-08-20T00:06:58;7.00;;;2.40;;
22034;SDS011;11181;51.002;4.356;2023-08-20T00:09:25;8.77;;;2.25;;
22034;SDS011;11181;51.002;4.356;2023-08-20T00:11:52;4.72;;;2.30;;
22034;SDS011;11181;51.002;4.356;2023-08-20T00:14:19;4.88;;;2.42;;
22034;SDS011;11181;51.002;4.356;2023-08-20T00:16:46;8.65;;;2.97;;
22034;SDS011;11181;51.002;4.356;2023-08-20T00:19:14;10.30;;;2.55;;
22034;SDS011;11181;51.002;4.356;2023-08-20T00:21:42;8.30;;;1.90;;
22034;SDS011;11181;51.002;4.356;2023-08-20T00:24:11;4.55;;;2.08;;
22034;SDS011;11181;51.002;4.356;2023-08-20T00:26:39;7.15;;;2.38;;
22034;SDS011;11181;51.002;4.356;2023-08-20T00:29:06;8.45;;;2.03;;
22034;SDS011;11181;51.002;4.356;2023-08-20T00:31:33;7.05;;;2.05;;
22034;SDS011;11181;51.002;4.356;2023-08-20T00:34:00;7.18;;;2.03;;
22034;SDS011;11181;51.002;4.356;2023-08-20T00:36:27;6.80;;;2.20;;
22034;SDS011;11181;51.002;4.356;2023-08-20T00:38:55;9.02;;;2.03;;
22034;SDS011;11181;51.002;4.356;2023-08-20T00:41:22;8.15;;;1.75;;
22034;SDS011;11181;51.002;4.356;2023-08-20T00:43:49;10.10;;;2.83;;
22034;SDS011;11181;51.002;4.356;2023-08-20T00:46:15;10.95;;;2.58;;
22034;SDS011;11181;51.002;4.356;2023-08-20T00:48:42;5.63;;;2.30;;
22034;SDS011;11181;51.002;4.356;2023-08-20T00:51:09;14.75;;;2.33;;
22034;SDS011;11181;51.002;4.356;2023-08-20T00:53:36;8.13;;;1.95;;
22034;SDS011;11181;51.002;4.356;2023-08-20T00:56:05;3.85;;;1.50;;
22034;SDS011;11181;51.002;4.356;2023-08-20T00:58:31;4.00;;;1.40;;
22034;SDS011;11181;51.002;4.356;2023-08-20T01:00:59;6.75;;;2.00;;
22034;SDS011;11181;51.002;4.356;2023-08-20T01:03:25;6.22;;;2.75;;
22034;SDS011;11181;51.002;4.356;2023-08-20T01:05:53;10.65;;;2.08;;
22034;SDS011;11181;51.002;4.356;2023-08-20T01:08:33;6.22;;;2.45;;
22034;SDS011;11181;51.002;4.356;2023-08-20T01:11:08;6.55;;;2.50;;
22034;SDS011;11181;51.002;4.356;2023-08-20T01:13:42;6.70;;;2.63;;
22034;SDS011;11181;51.002;4.356;2023-08-20T01:16:11;8.80;;;2.15;;
22034;SDS011;11181;51.002;4.356;2023-08-20T01:18:37;8.40;;;2.40;;
22034;SDS011;11181;51.002;4.356;2023-08-20T01:21:09;7.47;;;2.70;;
22034;SDS011;11181;51.002;4.356;2023-08-20T01:26:52;12.15;;;2.85;;
22034;SDS011;11181;51.002;4.356;2023-08-20T01:29:31;5.10;;;2.97;;
22034;SDS011;11181;51.002;4.356;2023-08-20T01:31:59;5.70;;;2.50;;
22034;SDS011;11181;51.002;4.356;2023-08-20T01:34:27;6.97;;;2.03;;
22034;SDS011;11181;51.002;4.356;2023-08-20T01:36:55;8.60;;;2.13;;
22034;SDS011;11181;51.002;4.356;2023-08-20T01:39:21;8.50;;;2.50;;
22034;SDS011;11181;51.002;4.356;2023-08-20T01:41:49;6.13;;;2.35;;
22034;SDS011;11181;51.002;4.356;2023-08-20T01:44:16;10.55;;;3.00;;
22034;SDS011;11181;51.002;4.356;2023-08-20T01:46:44;7.78;;;2.20;;
22034;SDS011;11181;51.002;4.356;2023-08-20T01:49:11;5.00;;;1.95;;
22034;SDS011;11181;51.002;4.356;2023-08-20T01:51:38;6.97;;;1.98;;
22034;SDS011;11181;51.002;4.356;2023-08-20T01:54:05;9.43;;;2.75;;
22034;SDS011;11181;51.002;4.356;2023-08-20T01:56:32;9.00;;;2.45;;
22034;SDS011;11181;51.002;4.356;2023-08-20T01:58:59;5.50;;;2.22;;
22034;SDS011;11181;51.002;4.356;2023-08-20T02:01:26;9.25;;;2.38;;
22034;SDS011;11181;51.002;4.356;2023-08-20T02:03:54;5.75;;;1.98;;
22034;SDS011;11181;51.002;4.356;2023-08-20T02:06:21;8.70;;;3.38;;
22034;SDS011;11181;51.002;4.356;2023-08-20T02:08:48;6.35;;;2.90;;
22034;SDS011;11181;51.002;4.356;2023-08-20T02:11:15;3.85;;;2.40;;
22034;SDS011;11181;51.002;4.356;2023-08-20T02:13:43;10.10;;;2.65;;
22034;SDS011;11181;51.002;4.356;2023-08-20T02:16:10;5.00;;;2.03;;
22034;SDS011;11181;51.002;4.356;2023-08-20T02:18:36;8.75;;;2.58;;
22034;SDS011;11181;51.002;4.356;2023-08-20T02:21:05;5.60;;;2.30;;
22034;SDS011;11181;51.002;4.356;2023-08-20T02:23:32;12.05;;;2.08;;
22034;SDS011;11181;51.002;4.356;2023-08-20T02:25:59;5.72;;;2.33;;
22034;SDS011;11181;51.002;4.356;2023-08-20T02:28:25;6.03;;;2.10;;
22034;SDS011;11181;51.002;4.356;2023-08-20T02:30:52;8.57;;;2.65;;
22034;SDS011;11181;51.002;4.356;2023-08-20T02:33:20;8.40;;;2.53;;
22034;SDS011;11181;51.002;4.356;2023-08-20T02:35:47;8.45;;;2.35;;
22034;SDS011;11181;51.002;4.356;2023-08-20T02:38:15;5.70;;;1.98;;
22034;SDS011;11181;51.002;4.356;2023-08-20T02:40:42;7.68;;;2.60;;
22034;SDS011;11181;51.002;4.356;2023-08-20T02:43:09;5.70;;;2.05;;
22034;SDS011;11181;51.002;4.356;2023-08-20T02:45:39;6.83;;;2.70;;
22034;SDS011;11181;51.002;4.356;2023-08-20T02:48:07;7.00;;;1.93;;
22034;SDS011;11181;51.002;4.356;2023-08-20T02:50:35;9.40;;;2.30;;
22034;SDS011;11181;51.002;4.356;2023-08-20T02:53:02;4.37;;;2.20;;
22034;SDS011;11181;51.002;4.356;2023-08-20T02:55:31;5.05;;;2.28;;
22034;SDS011;11181;51.002;4.356;2023-08-20T02:57:58;4.63;;;2.27;;
22034;SDS011;11181;51.002;4.356;2023-08-20T03:00:25;6.70;;;2.50;;
22034;SDS011;11181;51.002;4.356;2023-08-20T03:02:53;6.73;;;2.03;;
22034;SDS011;11181;51.002;4.356;2023-08-20T03:05:20;6.17;;;2.67;;
22034;SDS011;11181;51.002;4.356;2023-08-20T03:07:47;7.50;;;2.40;;
22034;SDS011;11181;51.002;4.356;2023-08-20T03:10:14;6.07;;;2.33;;
22034;SDS011;11181;51.002;4.356;2023-08-20T03:12:42;4.90;;;2.83;;
22034;SDS011;11181;51.002;4.356;2023-08-20T03:15:09;2.90;;;1.70;;
22034;SDS011;11181;51.002;4.356;2023-08-20T03:17:36;5.27;;;2.07;;
22034;SDS011;11181;51.002;4.356;2023-08-20T03:20:03;3.60;;;1.67;;
22034;SDS011;11181;51.002;4.356;2023-08-20T03:22:31;4.83;;;2.10;;
22034;SDS011;11181;51.002;4.356;2023-08-20T03:24:59;5.73;;;1.90;;
22034;SDS011;11181;51.002;4.356;2023-08-20T03:27:26;5.93;;;2.13;;
22034;SDS011;11181;51.002;4.356;2023-08-20T03:29:54;6.90;;;2.50;;
22034;SDS011;11181;51.002;4.356;2023-08-20T03:32:21;7.20;;;2.57;;
22034;SDS011;11181;51.002;4.356;2023-08-20T03:34:48;6.20;;;2.60;;
22034;SDS011;11181;51.002;4.356;2023-08-20T03:37:15;5.73;;;1.90;;
22034;SDS011;11181;51.002;4.356;2023-08-20T03:39:42;5.70;;;1.93;;
22034;SDS011;11181;51.002;4.356;2023-08-20T03:42:09;5.83;;;1.83;;
22034;SDS011;11181;51.002;4.356;2023-08-20T03:44:36;6.27;;;2.20;;
22034;SDS011;11181;51.002;4.356;2023-08-20T03:47:05;4.17;;;2.00;;
22034;SDS011;11181;51.002;4.356;2023-08-20T03:49:32;6.10;;;1.93;;
22034;SDS011;11181;51.002;4.356;2023-08-20T03:51:58;5.10;;;2.17;;
22034;SDS011;11181;51.002;4.356;2023-08-20T03:54:27;6.60;;;2.00;;
22034;SDS011;11181;51.002;4.356;2023-08-20T03:56:53;5.03;;;1.70;;
22034;SDS011;11181;51.002;4.356;2023-08-20T03:59:20;3.83;;;2.03;;
22034;SDS011;11181;51.002;4.356;2023-08-20T04:01:48;6.33;;;2.30;;
22034;SDS011;11181;51.002;4.356;2023-08-20T04:04:16;5.33;;;2.10;;
22034;SDS011;11181;51.002;4.356;2023-08-20T04:06:43;4.40;;;2.27;;
22034;SDS011;11181;51.002;4.356;2023-08-20T04:09:10;6.97;;;2.17;;
22034;SDS011;11181;51.002;4.356;2023-08-20T04:11:37;8.10;;;2.00;;
22034;SDS011;11181;51.002;4.356;2023-08-20T04:14:04;5.67;;;1.80;;
22034;SDS011;11181;51.002;4.356;2023-08-20T04:16:30;4.23;;;1.73;;
22034;SDS011;11181;51.002;4.356;2023-08-20T04:18:57;3.40;;;1.80;;
22034;SDS011;11181;51.002;4.356;2023-08-20T04:21:26;1.73;;;1.23;;
22034;SDS011;11181;51.002;4.356;2023-08-20T04:23:53;5.33;;;1.50;;
22034;SDS011;11181;51.002;4.356;2023-08-20T04:26:19;2.17;;;1.80;;
22034;SDS011;11181;51.002;4.356;2023-08-20T04:28:46;3.83;;;2.07;;
22034;SDS011;11181;51.002;4.356;2023-08-20T04:31:13;5.33;;;1.80;;
22034;SDS011;11181;51.002;4.356;2023-08-20T04:33:40;2.17;;;1.93;;
22034;SDS011;11181;51.002;4.356;2023-08-20T04:36:07;2.67;;;1.50;;
22034;SDS011;11181;51.002;4.356;2023-08-20T04:38:35;3.73;;;1.90;;
22034;SDS011;11181;51.002;4.356;2023-08-20T04:41:02;5.00;;;1.77;;
22034;SDS011;11181;51.002;4.356;2023-08-20T04:43:29;6.73;;;2.20;;
22034;SDS011;11181;51.002;4.356;2023-08-20T04:45:56;1.87;;;1.60;;
22034;SDS011;11181;51.002;4.356;2023-08-20T04:48:23;4.73;;;1.57;;
22034;SDS011;11181;51.002;4.356;2023-08-20T04:50:50;5.47;;;3.00;;
22034;SDS011;11181;51.002;4.356;2023-08-20T04:53:16;4.43;;;1.80;;
22034;SDS011;11181;51.002;4.356;2023-08-20T04:55:45;3.93;;;2.10;;
22034;SDS011;11181;51.002;4.356;2023-08-20T04:58:12;6.23;;;1.70;;
22034;SDS011;11181;51.002;4.356;2023-08-20T05:00:38;2.67;;;1.97;;
22034;SDS011;11181;51.002;4.356;2023-08-20T05:03:05;4.80;;;1.87;;
22034;SDS011;11181;51.002;4.356;2023-08-20T05:05:32;6.37;;;2.93;;
22034;SDS011;11181;51.002;4.356;2023-08-20T05:07:59;8.03;;;1.90;;
22034;SDS011;11181;51.002;4.356;2023-08-20T05:10:26;4.37;;;2.13;;
22034;SDS011;11181;51.002;4.356;2023-08-20T05:12:54;2.70;;;1.57;;
22034;SDS011;11181;51.002;4.356;2023-08-20T05:15:21;5.80;;;2.73;;
22034;SDS011;11181;51.002;4.356;2023-08-20T05:17:48;5.90;;;1.67;;
22034;SDS011;11181;51.002;4.356;2023-08-20T05:20:15;3.23;;;1.97;;
22034;SDS011;11181;51.002;4.356;2023-08-20T05:22:42;4.13;;;1.57;;
22034;SDS011;11181;51.002;4.356;2023-08-20T05:25:09;4.93;;;2.30;;
22034;SDS011;11181;51.002;4.356;2023-08-20T05:27:36;3.97;;;2.23;;
22034;SDS011;11181;51.002;4.356;2023-08-20T05:30:04;4.20;;;2.07;;
22034;SDS011;11181;51.002;4.356;2023-08-20T05:32:33;6.27;;;2.77;;
22034;SDS011;11181;51.002;4.356;2023-08-20T05:35:00;7.70;;;3.23;;
22034;SDS011;11181;51.002;4.356;2023-08-20T05:37:29;4.73;;;3.07;;
22034;SDS011;11181;51.002;4.356;2023-08-20T05:39:56;8.83;;;2.90;;
22034;SDS011;11181;51.002;4.356;2023-08-20T05:42:23;3.87;;;2.30;;
22034;SDS011;11181;51.002;4.356;2023-08-20T05:44:49;4.57;;;2.67;;
22034;SDS011;11181;51.002;4.356;2023-08-20T05:47:18;7.97;;;2.60;;
22034;SDS011;11181;51.002;4.356;2023-08-20T05:49:45;4.13;;;2.23;;
22034;SDS011;11181;51.002;4.356;2023-08-20T05:52:11;6.60;;;2.40;;
22034;SDS011;11181;51.002;4.356;2023-08-20T05:54:38;8.03;;;2.90;;
22034;SDS011;11181;51.002;4.356;2023-08-20T05:57:05;5.73;;;2.40;;
22034;SDS011;11181;51.002;4.356;2023-08-20T05:59:32;3.40;;;2.13;;
22034;SDS011;11181;51.002;4.356;2023-08-20T06:02:00;5.57;;;2.33;;
22034;SDS011;11181;51.002;4.356;2023-08-20T06:04:29;5.30;;;1.87;;
22034;SDS011;11181;51.002;4.356;2023-08-20T06:06:56;4.87;;;2.43;;
22034;SDS011;11181;51.002;4.356;2023-08-20T06:09:23;5.43;;;2.37;;
22034;SDS011;11181;51.002;4.356;2023-08-20T06:11:49;3.70;;;2.20;;
22034;SDS011;11181;51.002;4.356;2023-08-20T06:14:16;4.90;;;2.63;;
22034;SDS011;11181;51.002;4.356;2023-08-20T06:16:43;4.60;;;1.77;;
22034;SDS011;11181;51.002;4.356;2023-08-20T06:19:10;9.10;;;3.03;;
22034;SDS011;11181;51.002;4.356;2023-08-20T06:21:38;6.43;;;2.23;;
22034;SDS011;11181;51.002;4.356;2023-08-20T06:24:06;5.10;;;2.13;;
22034;SDS011;11181;51.002;4.356;2023-08-20T06:26:33;10.07;;;2.83;;
22034;SDS011;11181;51.002;4.356;2023-08-20T06:29:00;5.25;;;1.98;;
22034;SDS011;11181;51.002;4.356;2023-08-20T06:31:27;4.60;;;2.17;;
22034;SDS011;11181;51.002;4.356;2023-08-20T06:33:54;8.35;;;2.55;;
22034;SDS011;11181;51.002;4.356;2023-08-20T06:36:21;5.75;;;1.95;;
22034;SDS011;11181;51.002;4.356;2023-08-20T06:38:50;7.85;;;2.08;;
22034;SDS011;11181;51.002;4.356;2023-08-20T06:41:17;5.63;;;2.38;;
22034;SDS011;11181;51.002;4.356;2023-08-20T06:43:44;5.35;;;1.77;;
22034;SDS011;11181;51.002;4.356;2023-08-20T06:46:10;6.82;;;2.08;;
22034;SDS011;11181;51.002;4.356;2023-08-20T06:48:37;8.75;;;3.40;;
22034;SDS011;11181;51.002;4.356;2023-08-20T06:51:08;13.90;;;2.97;;
22034;SDS011;11181;51.002;4.356;2023-08-20T06:53:37;6.45;;;2.13;;
22034;SDS011;11181;51.002;4.356;2023-08-20T06:56:07;5.70;;;2.67;;
22034;SDS011;11181;51.002;4.356;2023-08-20T06:58:34;8.55;;;2.50;;
22034;SDS011;11181;51.002;4.356;2023-08-20T07:01:01;8.70;;;2.50;;
22034;SDS011;11181;51.002;4.356;2023-08-20T07:03:33;8.80;;;2.10;;
22034;SDS011;11181;51.002;4.356;2023-08-20T07:06:00;3.28;;;1.52;;
22034;SDS011;11181;51.002;4.356;2023-08-20T07:08:27;6.57;;;1.70;;
22034;SDS011;11181;51.002;4.356;2023-08-20T07:10:54;10.35;;;2.05;;
22034;SDS011;11181;51.002;4.356;2023-08-20T07:13:23;4.00;;;1.58;;
22034;SDS011;11181;51.002;4.356;2023-08-20T07:15:50;5.32;;;1.20;;
22034;SDS011;11181;51.002;4.356;2023-08-20T07:18:17;7.70;;;1.58;;
22034;SDS011;11181;51.002;4.356;2023-08-20T07:20:44;5.07;;;1.35;;
22034;SDS011;11181;51.002;4.356;2023-08-20T07:23:11;6.13;;;1.67;;
22034;SDS011;11181;51.002;4.356;2023-08-20T07:25:39;5.00;;;1.50;;
22034;SDS011;11181;51.002;4.356;2023-08-20T07:28:07;4.20;;;1.40;;
22034;SDS011;11181;51.002;4.356;2023-08-20T07:30:36;6.38;;;1.42;;
22034;SDS011;11181;51.002;4.356;2023-08-20T07:33:03;7.32;;;1.80;;
22034;SDS011;11181;51.002;4.356;2023-08-20T07:35:32;4.45;;;1.38;;
22034;SDS011;11181;51.002;4.356;2023-08-20T07:38:00;7.13;;;1.95;;
22034;SDS011;11181;51.002;4.356;2023-08-20T07:40:27;5.38;;;1.67;;
22034;SDS011;11181;51.002;4.356;2023-08-20T07:42:54;6.55;;;1.33;;
22034;SDS011;11181;51.002;4.356;2023-08-20T07:45:22;3.25;;;1.20;;
22034;SDS011;11181;51.002;4.356;2023-08-20T07:47:50;3.45;;;1.05;;
22034;SDS011;11181;51.002;4.356;2023-08-20T07:50:17;4.75;;;1.40;;
22034;SDS011;11181;51.002;4.356;2023-08-20T07:52:44;5.25;;;2.50;;
22034;SDS011;11181;51.002;4.356;2023-08-20T07:55:11;5.35;;;1.30;;
22034;SDS011;11181;51.002;4.356;2023-08-20T07:57:38;4.60;;;1.40;;
22034;SDS011;11181;51.002;4.356;2023-08-20T08:00:06;3.53;;;0.98;;
22034;SDS011;11181;51.002;4.356;2023-08-20T08:02:33;5.25;;;1.50;;
22034;SDS011;11181;51.002;4.356;2023-08-20T08:05:01;6.90;;;1.58;;
22034;SDS011;11181;51.002;4.356;2023-08-20T08:07:29;7.68;;;1.80;;
22034;SDS011;11181;51.002;4.356;2023-08-20T08:09:56;4.57;;;1.58;;
22034;SDS011;11181;51.002;4.356;2023-08-20T08:12:23;1.85;;;1.08;;
22034;SDS011;11181;51.002;4.356;2023-08-20T08:14:50;2.88;;;1.25;;
22034;SDS011;11181;51.002;4.356;2023-08-20T08:17:17;4.80;;;1.55;;
22034;SDS011;11181;51.002;4.356;2023-08-20T08:19:46;6.88;;;1.58;;
22034;SDS011;11181;51.002;4.356;2023-08-20T08:22:15;4.43;;;1.25;;
22034;SDS011;11181;51.002;4.356;2023-08-20T08:24:42;7.18;;;2.00;;
22034;SDS011;11181;51.002;4.356;2023-08-20T08:27:08;4.22;;;1.27;;
22034;SDS011;11181;51.002;4.356;2023-08-20T08:29:36;2.28;;;0.80;;
22034;SDS011;11181;51.002;4.356;2023-08-20T08:32:03;5.22;;;1.48;;
22034;SDS011;11181;51.002;4.356;2023-08-20T08:34:30;2.88;;;1.20;;
22034;SDS011;11181;51.002;4.356;2023-08-20T08:36:57;3.47;;;1.02;;
22034;SDS011;11181;51.002;4.356;2023-08-20T08:39:25;5.85;;;1.63;;
22034;SDS011;11181;51.002;4.356;2023-08-20T08:41:53;5.45;;;1.45;;
22034;SDS011;11181;51.002;4.356;2023-08-20T08:44:26;5.10;;;1.55;;
22034;SDS011;11181;51.002;4.356;2023-08-20T08:46:54;4.80;;;1.45;;
22034;SDS011;11181;51.002;4.356;2023-08-20T08:49:21;3.78;;;1.02;;
22034;SDS011;11181;51.002;4.356;2023-08-20T08:51:47;4.70;;;1.25;;
22034;SDS011;11181;51.002;4.356;2023-08-20T08:54:15;4.13;;;1.30;;
22034;SDS011;11181;51.002;4.356;2023-08-20T08:56:44;2.50;;;0.90;;
22034;SDS011;11181;51.002;4.356;2023-08-20T08:59:11;3.47;;;1.23;;
22034;SDS011;11181;51.002;4.356;2023-08-20T09:01:38;2.90;;;0.90;;
22034;SDS011;11181;51.002;4.356;2023-08-20T09:04:05;4.53;;;0.90;;
22034;SDS011;11181;51.002;4.356;2023-08-20T09:06:44;3.45;;;0.80;;
22034;SDS011;11181;51.002;4.356;2023-08-20T09:09:11;3.60;;;0.93;;
22034;SDS011;11181;51.002;4.356;2023-08-20T09:11:38;3.10;;;0.90;;
22034;SDS011;11181;51.002;4.356;2023-08-20T09:14:06;1.90;;;0.75;;
22034;SDS011;11181;51.002;4.356;2023-08-20T09:16:33;4.93;;;0.93;;
22034;SDS011;11181;51.002;4.356;2023-08-20T09:19:01;3.00;;;1.20;;
22034;SDS011;11181;51.002;4.356;2023-08-20T09:21:29;2.88;;;1.10;;
22034;SDS011;11181;51.002;4.356;2023-08-20T09:23:56;2.75;;;0.90;;
22034;SDS011;11181;51.002;4.356;2023-08-20T09:26:23;3.70;;;1.25;;
22034;SDS011;11181;51.002;4.356;2023-08-20T09:28:50;2.97;;;1.00;;
22034;SDS011;11181;51.002;4.356;2023-08-20T09:31:22;3.25;;;0.77;;
22034;SDS011;11181;51.002;4.356;2023-08-20T09:34:05;4.05;;;0.88;;
22034;SDS011;11181;51.002;4.356;2023-08-20T09:36:32;2.45;;;1.08;;
22034;SDS011;11181;51.002;4.356;2023-08-20T09:39:00;1.83;;;0.82;;
22034;SDS011;11181;51.002;4.356;2023-08-20T09:41:27;6.97;;;1.00;;
22034;SDS011;11181;51.002;4.356;2023-08-20T09:43:56;3.70;;;0.57;;
22034;SDS011;11181;51.002;4.356;2023-08-20T09:46:26;4.38;;;0.90;;
22034;SDS011;11181;51.002;4.356;2023-08-20T09:48:54;1.17;;;0.60;;
22034;SDS011;11181;51.002;4.356;2023-08-20T09:51:24;2.22;;;0.80;;
22034;SDS011;11181;51.002;4.356;2023-08-20T09:53:55;2.55;;;0.80;;
22034;SDS011;11181;51.002;4.356;2023-08-20T09:56:27;2.85;;;0.95;;
22034;SDS011;11181;51.002;4.356;2023-08-20T09:58:55;1.25;;;0.50;;
22034;SDS011;11181;51.002;4.356;2023-08-20T10:01:24;7.65;;;3.70;;
22034;SDS011;11181;51.002;4.356;2023-08-20T10:03:51;2.75;;;1.08;;
22034;SDS011;11181;51.002;4.356;2023-08-20T10:06:19;1.50;;;0.50;;
22034;SDS011;11181;51.002;4.356;2023-08-20T10:08:46;3.28;;;0.80;;
22034;SDS011;11181;51.002;4.356;2023-08-20T10:11:14;2.30;;;0.57;;
22034;SDS011;11181;51.002;4.356;2023-08-20T10:13:41;1.15;;;0.52;;
22034;SDS011;11181;51.002;4.356;2023-08-20T10:16:08;1.88;;;0.52;;
22034;SDS011;11181;51.002;4.356;2023-08-20T10:18:39;1.08;;;0.65;;
22034;SDS011;11181;51.002;4.356;2023-08-20T10:21:06;2.78;;;0.70;;
22034;SDS011;11181;51.002;4.356;2023-08-20T10:23:34;2.42;;;0.45;;
22034;SDS011;11181;51.002;4.356;2023-08-20T10:26:08;4.15;;;1.10;;
22034;SDS011;11181;51.002;4.356;2023-08-20T10:28:36;1.65;;;0.75;;
22034;SDS011;11181;51.002;4.356;2023-08-20T10:31:04;2.33;;;0.85;;
22034;SDS011;11181;51.002;4.356;2023-08-20T10:33:33;2.30;;;0.77;;
22034;SDS011;11181;51.002;4.356;2023-08-20T10:36:09;1.77;;;0.70;;
22034;SDS011;11181;51.002;4.356;2023-08-20T10:38:39;1.70;;;0.60;;
22034;SDS011;11181;51.002;4.356;2023-08-20T10:41:07;1.65;;;0.50;;
22034;SDS011;11181;51.002;4.356;2023-08-20T10:43:35;0.98;;;0.75;;
22034;SDS011;11181;51.002;4.356;2023-08-20T10:46:07;1.15;;;0.50;;
22034;SDS011;11181;51.002;4.356;2023-08-20T10:48:41;3.10;;;0.75;;
22034;SDS011;11181;51.002;4.356;2023-08-20T10:51:10;3.05;;;0.60;;
22034;SDS011;11181;51.002;4.356;2023-08-20T10:53:39;1.83;;;0.80;;
22034;SDS011;11181;51.002;4.356;2023-08-20T10:56:08;1.63;;;0.50;;
22034;SDS011;11181;51.002;4.356;2023-08-20T10:58:38;2.38;;;0.80;;
22034;SDS011;11181;51.002;4.356;2023-08-20T11:01:13;1.65;;;0.63;;
22034;SDS011;11181;51.002;4.356;2023-08-20T11:03:41;0.73;;;0.43;;
22034;SDS011;11181;51.002;4.356;2023-08-20T11:06:08;2.47;;;0.70;;
22034;SDS011;11181;51.002;4.356;2023-08-20T11:08:37;3.33;;;0.95;;
22034;SDS011;11181;51.002;4.356;2023-08-20T11:11:04;1.75;;;0.73;;
22034;SDS011;11181;51.002;4.356;2023-08-20T11:13:33;1.92;;;0.68;;
22034;SDS011;11181;51.002;4.356;2023-08-20T11:16:01;0.90;;;0.40;;
22034;SDS011;11181;51.002;4.356;2023-08-20T11:18:29;1.15;;;0.50;;
22034;SDS011;11181;51.002;4.356;2023-08-20T11:20:57;2.08;;;0.65;;
22034;SDS011;11181;51.002;4.356;2023-08-20T11:23:26;1.50;;;0.40;;
22034;SDS011;11181;51.002;4.356;2023-08-20T11:25:53;4.95;;;1.83;;
22034;SDS011;11181;51.002;4.356;2023-08-20T11:28:20;1.20;;;0.50;;
22034;SDS011;11181;51.002;4.356;2023-08-20T11:30:47;2.78;;;0.70;;
22034;SDS011;11181;51.002;4.356;2023-08-20T11:33:16;1.83;;;0.75;;
22034;SDS011;11181;51.002;4.356;2023-08-20T11:35:43;2.03;;;0.70;;
22034;SDS011;11181;51.002;4.356;2023-08-20T11:38:10;0.80;;;0.40;;
22034;SDS011;11181;51.002;4.356;2023-08-20T11:40:39;1.48;;;0.68;;
22034;SDS011;11181;51.002;4.356;2023-08-20T11:43:06;1.27;;;0.70;;
22034;SDS011;11181;51.002;4.356;2023-08-20T11:45:33;4.18;;;0.90;;
22034;SDS011;11181;51.002;4.356;2023-08-20T11:48:10;2.28;;;0.68;;
22034;SDS011;11181;51.002;4.356;2023-08-20T11:50:37;4.18;;;0.75;;
22034;SDS011;11181;51.002;4.356;2023-08-20T11:53:05;3.03;;;0.82;;
22034;SDS011;11181;51.002;4.356;2023-08-20T11:55:33;2.72;;;0.60;;
22034;SDS011;11181;51.002;4.356;2023-08-20T11:58:01;2.78;;;1.13;;
22034;SDS011;11181;51.002;4.356;2023-08-20T12:00:29;3.70;;;1.42;;
22034;SDS011;11181;51.002;4.356;2023-08-20T12:02:57;2.25;;;0.70;;
22034;SDS011;11181;51.002;4.356;2023-08-20T12:05:26;2.05;;;0.55;;
22034;SDS011;11181;51.002;4.356;2023-08-20T12:07:56;1.58;;;0.70;;
22034;SDS011;11181;51.002;4.356;2023-08-20T12:10:24;2.50;;;0.70;;
22034;SDS011;11181;51.002;4.356;2023-08-20T12:12:53;2.47;;;0.70;;
22034;SDS011;11181;51.002;4.356;2023-08-20T12:15:23;1.40;;;0.50;;
22034;SDS011;11181;51.002;4.356;2023-08-20T12:17:57;2.42;;;0.80;;
22034;SDS011;11181;51.002;4.356;2023-08-20T12:20:26;1.80;;;0.73;;
22034;SDS011;11181;51.002;4.356;2023-08-20T12:22:56;1.95;;;0.60;;
22034;SDS011;11181;51.002;4.356;2023-08-20T12:25:25;4.22;;;0.88;;
22034;SDS011;11181;51.002;4.356;2023-08-20T12:27:52;4.38;;;1.13;;
22034;SDS011;11181;51.002;4.356;2023-08-20T12:30:19;1.17;;;0.75;;
22034;SDS011;11181;51.002;4.356;2023-08-20T12:32:47;5.50;;;0.85;;
22034;SDS011;11181;51.002;4.356;2023-08-20T12:35:14;1.83;;;0.90;;
22034;SDS011;11181;51.002;4.356;2023-08-20T12:37:41;2.38;;;0.65;;
22034;SDS011;11181;51.002;4.356;2023-08-20T12:40:09;1.85;;;0.90;;
22034;SDS011;11181;51.002;4.356;2023-08-20T12:42:37;1.65;;;0.60;;
22034;SDS011;11181;51.002;4.356;2023-08-20T12:45:05;2.70;;;0.60;;
22034;SDS011;11181;51.002;4.356;2023-08-20T12:47:32;2.75;;;0.80;;
22034;SDS011;11181;51.002;4.356;2023-08-20T12:50:01;2.28;;;0.68;;
22034;SDS011;11181;51.002;4.356;2023-08-20T12:52:29;1.88;;;0.60;;
22034;SDS011;11181;51.002;4.356;2023-08-20T12:54:56;3.33;;;1.08;;
22034;SDS011;11181;51.002;4.356;2023-08-20T12:57:23;2.50;;;0.70;;
22034;SDS011;11181;51.002;4.356;2023-08-20T12:59:50;4.60;;;0.95;;
22034;SDS011;11181;51.002;4.356;2023-08-20T13:02:17;0.50;;;0.47;;
22034;SDS011;11181;51.002;4.356;2023-08-20T13:04:45;2.20;;;0.63;;
22034;SDS011;11181;51.002;4.356;2023-08-20T13:07:15;2.15;;;1.00;;
22034;SDS011;11181;51.002;4.356;2023-08-20T13:09:42;2.60;;;0.80;;
22034;SDS011;11181;51.002;4.356;2023-08-20T13:12:10;1.52;;;0.73;;
22034;SDS011;11181;51.002;4.356;2023-08-20T13:14:38;1.75;;;0.80;;
22034;SDS011;11181;51.002;4.356;2023-08-20T13:17:07;2.70;;;0.65;;
22034;SDS011;11181;51.002;4.356;2023-08-20T13:19:35;1.10;;;0.50;;
22034;SDS011;11181;51.002;4.356;2023-08-20T13:22:02;2.78;;;0.85;;
22034;SDS011;11181;51.002;4.356;2023-08-20T13:24:30;2.38;;;0.70;;
22034;SDS011;11181;51.002;4.356;2023-08-20T13:26:57;0.68;;;0.38;;
22034;SDS011;11181;51.002;4.356;2023-08-20T13:29:24;3.45;;;0.70;;
22034;SDS011;11181;51.002;4.356;2023-08-20T13:31:51;2.63;;;0.75;;
22034;SDS011;11181;51.002;4.356;2023-08-20T13:34:18;2.03;;;0.60;;
22034;SDS011;11181;51.002;4.356;2023-08-20T13:36:44;3.03;;;0.65;;
22034;SDS011;11181;51.002;4.356;2023-08-20T13:39:12;2.65;;;0.88;;
22034;SDS011;11181;51.002;4.356;2023-08-20T13:41:41;1.27;;;1.00;;
22034;SDS011;11181;51.002;4.356;2023-08-20T13:44:08;1.90;;;0.70;;
22034;SDS011;11181;51.002;4.356;2023-08-20T13:46:35;2.42;;;0.63;;
22034;SDS011;11181;51.002;4.356;2023-08-20T13:49:02;3.13;;;0.70;;
22034;SDS011;11181;51.002;4.356;2023-08-20T13:51:29;1.52;;;0.60;;
22034;SDS011;11181;51.002;4.356;2023-08-20T13:53:56;1.60;;;0.73;;
22034;SDS011;11181;51.002;4.356;2023-08-20T13:56:23;1.80;;;0.65;;
22034;SDS011;11181;51.002;4.356;2023-08-20T13:58:53;2.00;;;0.65;;
22034;SDS011;11181;51.002;4.356;2023-08-20T14:01:19;1.30;;;0.60;;
22034;SDS011;11181;51.002;4.356;2023-08-20T14:03:47;4.75;;;0.77;;
22034;SDS011;11181;51.002;4.356;2023-08-20T14:06:15;3.28;;;0.77;;
22034;SDS011;11181;51.002;4.356;2023-08-20T14:08:42;2.55;;;1.15;;
22034;SDS011;11181;51.002;4.356;2023-08-20T14:11:09;1.27;;;0.70;;
22034;SDS011;11181;51.002;4.356;2023-08-20T14:13:36;3.45;;;0.90;;
22034;SDS011;11181;51.002;4.356;2023-08-20T14:16:04;1.70;;;0.70;;
22034;SDS011;11181;51.002;4.356;2023-08-20T14:18:31;1.85;;;0.70;;
22034;SDS011;11181;51.002;4.356;2023-08-20T14:20:58;2.45;;;0.50;;
22034;SDS011;11181;51.002;4.356;2023-08-20T14:23:25;2.63;;;0.70;;
22034;SDS011;11181;51.002;4.356;2023-08-20T14:25:52;2.67;;;0.60;;
22034;SDS011;11181;51.002;4.356;2023-08-20T14:28:19;2.58;;;0.98;;
22034;SDS011;11181;51.002;4.356;2023-08-20T14:30:47;0.90;;;0.50;;
22034;SDS011;11181;51.002;4.356;2023-08-20T14:33:17;1.27;;;0.47;;
22034;SDS011;11181;51.002;4.356;2023-08-20T14:35:44;2.53;;;0.60;;
22034;SDS011;11181;51.002;4.356;2023-08-20T14:38:11;1.55;;;0.60;;
22034;SDS011;11181;51.002;4.356;2023-08-20T14:40:38;1.23;;;0.63;;
22034;SDS011;11181;51.002;4.356;2023-08-20T14:43:06;4.18;;;0.80;;
22034;SDS011;11181;51.002;4.356;2023-08-20T14:45:33;1.50;;;0.63;;
22034;SDS011;11181;51.002;4.356;2023-08-20T14:48:00;3.20;;;0.60;;
22034;SDS011;11181;51.002;4.356;2023-08-20T14:50:29;1.77;;;0.80;;
22034;SDS011;11181;51.002;4.356;2023-08-20T14:52:56;1.95;;;0.93;;
22034;SDS011;11181;51.002;4.356;2023-08-20T14:55:23;1.80;;;0.50;;